sensor_id;sensor_type;location;lat;lon;timestamp;pressure;altitude;pressure_sealevel;temperature;humidity
22743;BME280;11538;48.884;8.696;2023-06-24T00:00:37;99603.25;;;17.90;87.43
22743;BME280;11538;48.884;8.696;2023-06-24T00:03:05;99601.66;;;17.89;86.66
22743;BME280;11538;48.884;8.696;2023-06-24T00:05:34;99601.19;;;17.78;88.12
22743;BME280;11538;48.884;8.696;2023-06-24T00:08:01;99604.09;;;17.82;88.41
22743;BME280;11538;48.884;8.696;2023-06-24T00:10:30;99600.91;;;17.71;87.99
22743;BME280;11538;48.884;8.696;2023-06-24T00:12:56;99602.38;;;17.68;88.63
22743;BME280;11538;48.884;8.696;2023-06-24T00:15:28;99602.84;;;17.62;88.29
22743;BME280;11538;48.884;8.696;2023-06-24T00:17:55;99599.47;;;17.65;88.34
22743;BME280;11538;48.884;8.696;2023-06-24T00:20:32;99604.47;;;17.72;88.98
22743;BME280;11538;48.884;8.696;2023-06-24T00:23:00;99599.25;;;17.79;88.12
22743;BME280;11538;48.884;8.696;2023-06-24T00:25:27;99605.72;;;17.83;87.14
22743;BME280;11538;48.884;8.696;2023-06-24T00:27:54;99605.41;;;17.76;86.58
22743;BME280;11538;48.884;8.696;2023-06-24T00:30:22;99604.09;;;17.82;90.01
22743;BME280;11538;48.884;8.696;2023-06-24T00:32:50;99598.66;;;17.64;91.09
22743;BME280;11538;48.884;8.696;2023-06-24T00:35:17;99588.53;;;17.56;91.23
22743;BME280;11538;48.884;8.696;2023-06-24T00:37:44;99596.94;;;17.51;89.31
22743;BME280;11538;48.884;8.696;2023-06-24T00:40:13;99597.41;;;17.53;89.06
22743;BME280;11538;48.884;8.696;2023-06-24T00:42:45;99595.94;;;17.56;88.50
22743;BME280;11538;48.884;8.696;2023-06-24T00:45:12;99596.63;;;17.44;89.12
22743;BME280;11538;48.884;8.696;2023-06-24T00:47:40;99595.19;;;17.29;90.21
22743;BME280;11538;48.884;8.696;2023-06-24T00:50:08;99595.34;;;17.23;90.88
22743;BME280;11538;48.884;8.696;2023-06-24T00:52:38;99592.13;;;17.30;90.32
22743;BME280;11538;48.884;8.696;2023-06-24T00:55:11;99594.56;;;17.23;90.92
22743;BME280;11538;48.884;8.696;2023-06-24T00:57:44;99596.66;;;17.26;90.96
22743;BME280;11538;48.884;8.696;2023-06-24T01:00:12;99600.19;;;17.18;91.32
22743;BME280;11538;48.884;8.696;2023-06-24T01:02:44;99604.41;;;17.06;92.26
22743;BME280;11538;48.884;8.696;2023-06-24T01:05:12;99608.56;;;17.13;91.81
22743;BME280;11538;48.884;8.696;2023-06-24T01:07:41;99602.28;;;17.21;91.32
22743;BME280;11538;48.884;8.696;2023-06-24T01:10:09;99603.44;;;17.02;92.19
22743;BME280;11538;48.884;8.696;2023-06-24T01:12:40;99596.66;;;17.08;92.53
22743;BME280;11538;48.884;8.696;2023-06-24T01:15:08;99596.81;;;17.12;92.72
22743;BME280;11538;48.884;8.696;2023-06-24T01:17:48;99601.16;;;16.95;93.72
22743;BME280;11538;48.884;8.696;2023-06-24T01:24:12;99593.28;;;17.03;92.01
22743;BME280;11538;48.884;8.696;2023-06-24T01:32:11;99593.13;;;17.08;91.71
22743;BME280;11538;48.884;8.696;2023-06-24T01:34:56;99594.88;;;17.13;91.29
22743;BME280;11538;48.884;8.696;2023-06-24T01:37:44;99590.53;;;17.03;92.79
22743;BME280;11538;48.884;8.696;2023-06-24T01:42:51;99585.19;;;16.80;95.31
22743;BME280;11538;48.884;8.696;2023-06-24T01:45:26;99589.69;;;16.85;94.71
22743;BME280;11538;48.884;8.696;2023-06-24T01:48:18;99589.06;;;16.88;93.35
22743;BME280;11538;48.884;8.696;2023-06-24T01:51:01;99590.50;;;16.94;92.19
22743;BME280;11538;48.884;8.696;2023-06-24T01:53:36;99586.31;;;16.88;91.76
22743;BME280;11538;48.884;8.696;2023-06-24T01:56:12;99589.41;;;16.86;91.72
22743;BME280;11538;48.884;8.696;2023-06-24T01:58:43;99585.34;;;16.84;92.30
22743;BME280;11538;48.884;8.696;2023-06-24T02:01:13;99583.41;;;16.75;92.82
22743;BME280;11538;48.884;8.696;2023-06-24T02:03:41;99585.03;;;16.76;93.07
22743;BME280;11538;48.884;8.696;2023-06-24T02:06:09;99582.44;;;16.62;93.91
22743;BME280;11538;48.884;8.696;2023-06-24T02:08:39;99584.38;;;16.62;94.44
22743;BME280;11538;48.884;8.696;2023-06-24T02:11:09;99578.91;;;16.71;93.25
22743;BME280;11538;48.884;8.696;2023-06-24T02:13:38;99588.72;;;16.63;93.23
22743;BME280;11538;48.884;8.696;2023-06-24T02:16:08;99589.66;;;16.49;93.20
22743;BME280;11538;48.884;8.696;2023-06-24T02:18:39;99583.53;;;16.35;94.35
22743;BME280;11538;48.884;8.696;2023-06-24T02:21:11;99584.00;;;16.37;94.59
22743;BME280;11538;48.884;8.696;2023-06-24T02:23:39;99583.69;;;16.30;95.14
22743;BME280;11538;48.884;8.696;2023-06-24T02:26:07;99581.09;;;16.25;95.54
22743;BME280;11538;48.884;8.696;2023-06-24T02:28:37;99586.72;;;16.28;95.00
22743;BME280;11538;48.884;8.696;2023-06-24T02:31:06;99581.72;;;16.30;94.95
22743;BME280;11538;48.884;8.696;2023-06-24T02:33:33;99580.31;;;16.33;94.96
22743;BME280;11538;48.884;8.696;2023-06-24T02:36:00;99581.72;;;16.30;95.09
22743;BME280;11538;48.884;8.696;2023-06-24T02:38:27;99581.53;;;16.18;95.14
22743;BME280;11538;48.884;8.696;2023-06-24T02:40:54;99575.22;;;16.08;96.36
22743;BME280;11538;48.884;8.696;2023-06-24T02:43:23;99580.41;;;16.10;96.71
22743;BME280;11538;48.884;8.696;2023-06-24T02:45:50;99574.94;;;16.10;96.88
22743;BME280;11538;48.884;8.696;2023-06-24T02:48:19;99574.41;;;15.99;97.75
22743;BME280;11538;48.884;8.696;2023-06-24T02:50:47;99580.56;;;16.05;98.07
22743;BME280;11538;48.884;8.696;2023-06-24T02:53:15;99575.28;;;16.17;96.52
22743;BME280;11538;48.884;8.696;2023-06-24T02:55:43;99571.41;;;16.18;96.01
22743;BME280;11538;48.884;8.696;2023-06-24T02:58:13;99582.84;;;16.20;96.12
22743;BME280;11538;48.884;8.696;2023-06-24T03:00:40;99576.06;;;16.18;94.99
22743;BME280;11538;48.884;8.696;2023-06-24T03:03:08;99565.13;;;16.09;95.95
22743;BME280;11538;48.884;8.696;2023-06-24T03:05:36;99574.59;;;16.12;96.16
22743;BME280;11538;48.884;8.696;2023-06-24T03:08:04;99579.28;;;16.20;95.37
22743;BME280;11538;48.884;8.696;2023-06-24T03:10:31;99581.72;;;16.21;95.59
22743;BME280;11538;48.884;8.696;2023-06-24T03:12:58;99586.06;;;16.22;95.13
22743;BME280;11538;48.884;8.696;2023-06-24T03:15:25;99582.38;;;16.18;95.48
22743;BME280;11538;48.884;8.696;2023-06-24T03:17:54;99584.13;;;16.14;95.96
22743;BME280;11538;48.884;8.696;2023-06-24T03:20:21;99584.63;;;16.16;95.73
22743;BME280;11538;48.884;8.696;2023-06-24T03:22:48;99597.63;;;16.11;95.82
22743;BME280;11538;48.884;8.696;2023-06-24T03:25:15;99591.34;;;16.10;95.77
22743;BME280;11538;48.884;8.696;2023-06-24T03:27:42;99587.94;;;16.04;95.97
22743;BME280;11538;48.884;8.696;2023-06-24T03:30:11;99594.03;;;16.01;96.69
22743;BME280;11538;48.884;8.696;2023-06-24T03:32:41;99592.28;;;16.05;96.01
22743;BME280;11538;48.884;8.696;2023-06-24T03:35:14;99594.75;;;15.84;97.27
22743;BME280;11538;48.884;8.696;2023-06-24T03:37:41;99599.72;;;15.82;97.06
22743;BME280;11538;48.884;8.696;2023-06-24T03:40:08;99599.41;;;15.84;97.18
22743;BME280;11538;48.884;8.696;2023-06-24T03:42:35;99600.69;;;15.77;97.79
22743;BME280;11538;48.884;8.696;2023-06-24T03:45:03;99596.88;;;15.87;97.04
22743;BME280;11538;48.884;8.696;2023-06-24T03:47:30;99609.47;;;15.97;96.40
22743;BME280;11538;48.884;8.696;2023-06-24T03:49:57;99607.91;;;16.05;95.27
22743;BME280;11538;48.884;8.696;2023-06-24T03:52:25;99615.78;;;15.98;95.65
22743;BME280;11538;48.884;8.696;2023-06-24T03:54:52;99623.94;;;15.89;96.40
22743;BME280;11538;48.884;8.696;2023-06-24T03:57:20;99630.78;;;15.77;97.14
22743;BME280;11538;48.884;8.696;2023-06-24T03:59:47;99627.28;;;15.86;96.50
22743;BME280;11538;48.884;8.696;2023-06-24T04:02:14;99627.06;;;15.82;96.04
22743;BME280;11538;48.884;8.696;2023-06-24T04:04:42;99623.84;;;15.80;96.45
22743;BME280;11538;48.884;8.696;2023-06-24T04:07:09;99630.78;;;15.86;96.47
22743;BME280;11538;48.884;8.696;2023-06-24T04:09:36;99632.94;;;15.89;95.75
22743;BME280;11538;48.884;8.696;2023-06-24T04:12:03;99631.69;;;15.96;95.19
22743;BME280;11538;48.884;8.696;2023-06-24T04:14:31;99627.22;;;16.00;94.78
22743;BME280;11538;48.884;8.696;2023-06-24T04:16:57;99631.38;;;15.97;95.03
22743;BME280;11538;48.884;8.696;2023-06-24T04:19:24;99636.78;;;15.88;95.91
22743;BME280;11538;48.884;8.696;2023-06-24T04:21:51;99634.66;;;15.85;96.66
22743;BME280;11538;48.884;8.696;2023-06-24T04:24:18;99645.28;;;15.87;96.49
22743;BME280;11538;48.884;8.696;2023-06-24T04:26:45;99640.47;;;15.84;96.62
22743;BME280;11538;48.884;8.696;2023-06-24T04:29:12;99644.81;;;15.85;96.77
22743;BME280;11538;48.884;8.696;2023-06-24T04:31:38;99647.44;;;15.90;96.53
22743;BME280;11538;48.884;8.696;2023-06-24T04:34:05;99642.50;;;16.01;95.38
22743;BME280;11538;48.884;8.696;2023-06-24T04:36:32;99639.94;;;16.04;95.30
22743;BME280;11538;48.884;8.696;2023-06-24T04:38:59;99640.25;;;16.03;95.10
22743;BME280;11538;48.884;8.696;2023-06-24T04:41:29;99644.25;;;15.97;95.78
22743;BME280;11538;48.884;8.696;2023-06-24T04:43:56;99648.97;;;16.05;95.73
22743;BME280;11538;48.884;8.696;2023-06-24T04:46:23;99642.38;;;16.06;95.60
22743;BME280;11538;48.884;8.696;2023-06-24T04:48:50;99645.91;;;16.06;95.19
22743;BME280;11538;48.884;8.696;2023-06-24T04:51:17;99657.31;;;16.00;95.63
22743;BME280;11538;48.884;8.696;2023-06-24T04:53:44;99658.94;;;16.01;95.73
22743;BME280;11538;48.884;8.696;2023-06-24T04:56:11;99651.88;;;16.08;95.38
22743;BME280;11538;48.884;8.696;2023-06-24T04:58:37;99657.66;;;16.07;95.29
22743;BME280;11538;48.884;8.696;2023-06-24T05:01:04;99655.91;;;16.11;94.96
22743;BME280;11538;48.884;8.696;2023-06-24T05:03:31;99649.31;;;16.12;95.57
22743;BME280;11538;48.884;8.696;2023-06-24T05:05:58;99646.16;;;16.28;94.62
22743;BME280;11538;48.884;8.696;2023-06-24T05:08:25;99647.00;;;16.37;93.85
22743;BME280;11538;48.884;8.696;2023-06-24T05:10:52;99647.28;;;16.35;93.90
22743;BME280;11538;48.884;8.696;2023-06-24T05:13:19;99649.72;;;16.37;93.27
22743;BME280;11538;48.884;8.696;2023-06-24T05:15:46;99654.56;;;16.40;93.34
22743;BME280;11538;48.884;8.696;2023-06-24T05:18:12;99653.94;;;16.43;93.03
22743;BME280;11538;48.884;8.696;2023-06-24T05:20:39;99651.53;;;16.50;92.91
22743;BME280;11538;48.884;8.696;2023-06-24T05:23:06;99656.22;;;16.59;91.97
22743;BME280;11538;48.884;8.696;2023-06-24T05:25:33;99658.97;;;16.59;92.53
22743;BME280;11538;48.884;8.696;2023-06-24T05:28:02;99665.41;;;16.63;92.69
22743;BME280;11538;48.884;8.696;2023-06-24T05:30:29;99667.50;;;16.66;92.49
22743;BME280;11538;48.884;8.696;2023-06-24T05:32:56;99658.50;;;16.65;92.58
22743;BME280;11538;48.884;8.696;2023-06-24T05:35:23;99659.78;;;16.68;92.87
22743;BME280;11538;48.884;8.696;2023-06-24T05:37:50;99667.84;;;16.73;92.44
22743;BME280;11538;48.884;8.696;2023-06-24T05:40:17;99673.19;;;16.78;92.35
22743;BME280;11538;48.884;8.696;2023-06-24T05:42:44;99660.44;;;16.83;91.67
22743;BME280;11538;48.884;8.696;2023-06-24T05:45:11;99665.28;;;16.86;91.40
22743;BME280;11538;48.884;8.696;2023-06-24T05:47:38;99661.75;;;16.94;91.43
22743;BME280;11538;48.884;8.696;2023-06-24T05:50:06;99664.03;;;17.09;91.44
22743;BME280;11538;48.884;8.696;2023-06-24T05:52:33;99661.63;;;17.17;89.83
22743;BME280;11538;48.884;8.696;2023-06-24T05:55:00;99662.94;;;17.19;89.18
22743;BME280;11538;48.884;8.696;2023-06-24T05:57:27;99664.88;;;17.28;89.81
22743;BME280;11538;48.884;8.696;2023-06-24T05:59:53;99668.41;;;17.37;90.00
22743;BME280;11538;48.884;8.696;2023-06-24T06:02:20;99673.56;;;17.47;89.94
22743;BME280;11538;48.884;8.696;2023-06-24T06:04:47;99673.09;;;17.54;89.64
22743;BME280;11538;48.884;8.696;2023-06-24T06:07:14;99664.69;;;17.59;89.58
22743;BME280;11538;48.884;8.696;2023-06-24T06:09:41;99662.72;;;17.68;89.31
22743;BME280;11538;48.884;8.696;2023-06-24T06:12:09;99670.44;;;17.75;88.73
22743;BME280;11538;48.884;8.696;2023-06-24T06:14:38;99656.56;;;17.80;88.47
22743;BME280;11538;48.884;8.696;2023-06-24T06:17:05;99651.88;;;17.90;88.33
22743;BME280;11538;48.884;8.696;2023-06-24T06:19:32;99665.56;;;17.98;88.56
22743;BME280;11538;48.884;8.696;2023-06-24T06:21:59;99658.59;;;18.10;88.30
22743;BME280;11538;48.884;8.696;2023-06-24T06:24:26;99668.06;;;18.21;87.35
22743;BME280;11538;48.884;8.696;2023-06-24T06:26:53;99664.47;;;18.30;87.13
22743;BME280;11538;48.884;8.696;2023-06-24T06:29:20;99660.88;;;18.38;86.50
22743;BME280;11538;48.884;8.696;2023-06-24T06:31:47;99658.91;;;18.47;85.97
22743;BME280;11538;48.884;8.696;2023-06-24T06:34:14;99667.44;;;18.54;85.74
22743;BME280;11538;48.884;8.696;2023-06-24T06:36:40;99652.50;;;18.64;86.16
22743;BME280;11538;48.884;8.696;2023-06-24T06:39:07;99654.88;;;18.75;86.36
22743;BME280;11538;48.884;8.696;2023-06-24T06:41:35;99651.25;;;18.83;85.94
22743;BME280;11538;48.884;8.696;2023-06-24T06:44:02;99652.47;;;18.94;84.37
22743;BME280;11538;48.884;8.696;2023-06-24T06:46:29;99654.25;;;18.99;83.94
22743;BME280;11538;48.884;8.696;2023-06-24T06:48:56;99655.19;;;19.03;83.18
22743;BME280;11538;48.884;8.696;2023-06-24T06:51:23;99661.44;;;19.12;82.93
22743;BME280;11538;48.884;8.696;2023-06-24T06:53:51;99656.34;;;19.23;82.27
22743;BME280;11538;48.884;8.696;2023-06-24T06:56:25;99651.88;;;19.31;82.55
22743;BME280;11538;48.884;8.696;2023-06-24T06:58:53;99650.78;;;19.44;81.99
22743;BME280;11538;48.884;8.696;2023-06-24T07:01:19;99645.00;;;19.58;81.05
22743;BME280;11538;48.884;8.696;2023-06-24T07:03:49;99643.06;;;19.71;80.45
22743;BME280;11538;48.884;8.696;2023-06-24T07:06:19;99647.91;;;19.87;80.07
22743;BME280;11538;48.884;8.696;2023-06-24T07:08:46;99646.16;;;20.04;79.40
22743;BME280;11538;48.884;8.696;2023-06-24T07:11:13;99646.63;;;20.18;78.24
22743;BME280;11538;48.884;8.696;2023-06-24T07:13:43;99644.34;;;20.33;77.53
22743;BME280;11538;48.884;8.696;2023-06-24T07:16:11;99646.63;;;20.43;76.94
22743;BME280;11538;48.884;8.696;2023-06-24T07:18:38;99646.28;;;20.57;76.16
22743;BME280;11538;48.884;8.696;2023-06-24T07:21:05;99638.09;;;20.73;75.03
22743;BME280;11538;48.884;8.696;2023-06-24T07:23:33;99647.28;;;20.89;73.44
22743;BME280;11538;48.884;8.696;2023-06-24T07:26:00;99645.84;;;21.08;73.13
22743;BME280;11538;48.884;8.696;2023-06-24T07:28:30;99649.22;;;21.30;69.79
22743;BME280;11538;48.884;8.696;2023-06-24T07:30:57;99638.22;;;21.46;64.90
22743;BME280;11538;48.884;8.696;2023-06-24T07:33:24;99635.50;;;21.62;64.56
22743;BME280;11538;48.884;8.696;2023-06-24T07:35:51;99640.78;;;21.83;65.37
22743;BME280;11538;48.884;8.696;2023-06-24T07:38:18;99639.66;;;22.00;66.36
22743;BME280;11538;48.884;8.696;2023-06-24T07:40:45;99638.94;;;22.19;62.38
22743;BME280;11538;48.884;8.696;2023-06-24T07:43:11;99638.84;;;22.32;58.91
22743;BME280;11538;48.884;8.696;2023-06-24T07:45:39;99641.50;;;22.44;58.40
22743;BME280;11538;48.884;8.696;2023-06-24T07:48:06;99640.69;;;22.60;57.62
22743;BME280;11538;48.884;8.696;2023-06-24T07:50:34;99651.63;;;22.72;59.42
22743;BME280;11538;48.884;8.696;2023-06-24T07:53:02;99639.56;;;22.81;58.92
22743;BME280;11538;48.884;8.696;2023-06-24T07:55:29;99639.16;;;22.98;58.80
22743;BME280;11538;48.884;8.696;2023-06-24T07:57:56;99632.97;;;23.05;58.25
22743;BME280;11538;48.884;8.696;2023-06-24T08:00:25;99634.72;;;23.13;57.29
22743;BME280;11538;48.884;8.696;2023-06-24T08:02:52;99636.19;;;23.27;56.92
22743;BME280;11538;48.884;8.696;2023-06-24T08:05:19;99641.59;;;23.39;55.25
22743;BME280;11538;48.884;8.696;2023-06-24T08:07:47;99630.34;;;23.51;56.64
22743;BME280;11538;48.884;8.696;2023-06-24T08:10:13;99635.66;;;23.60;53.99
22743;BME280;11538;48.884;8.696;2023-06-24T08:12:40;99638.78;;;23.59;51.93
22743;BME280;11538;48.884;8.696;2023-06-24T08:15:08;99637.94;;;23.78;54.02
22743;BME280;11538;48.884;8.696;2023-06-24T08:17:35;99639.06;;;23.97;51.61
22743;BME280;11538;48.884;8.696;2023-06-24T08:20:03;99633.00;;;24.11;50.99
22743;BME280;11538;48.884;8.696;2023-06-24T08:22:31;99633.97;;;24.22;48.48
22743;BME280;11538;48.884;8.696;2023-06-24T08:24:58;99636.53;;;24.34;47.90
22743;BME280;11538;48.884;8.696;2023-06-24T08:30:29;99622.97;;;24.83;50.47
22743;BME280;11538;48.884;8.696;2023-06-24T08:33:34;99627.59;;;25.06;51.83
22743;BME280;11538;48.884;8.696;2023-06-24T08:36:21;99608.81;;;25.26;50.18
22743;BME280;11538;48.884;8.696;2023-06-24T08:38:50;99617.69;;;25.39;50.06
22743;BME280;11538;48.884;8.696;2023-06-24T08:41:16;99621.41;;;25.50;49.10
22743;BME280;11538;48.884;8.696;2023-06-24T08:43:43;99615.19;;;25.64;49.63
22743;BME280;11538;48.884;8.696;2023-06-24T08:46:13;99617.25;;;25.75;49.08
22743;BME280;11538;48.884;8.696;2023-06-24T08:48:43;99619.38;;;25.85;44.44
22743;BME280;11538;48.884;8.696;2023-06-24T08:51:16;99614.75;;;26.07;47.14
22743;BME280;11538;48.884;8.696;2023-06-24T08:53:45;99616.91;;;26.25;44.89
22743;BME280;11538;48.884;8.696;2023-06-24T08:56:15;99613.44;;;26.42;51.04
22743;BME280;11538;48.884;8.696;2023-06-24T08:58:42;99623.50;;;26.58;46.32
22743;BME280;11538;48.884;8.696;2023-06-24T09:01:11;99617.59;;;26.74;44.81
22743;BME280;11538;48.884;8.696;2023-06-24T09:03:40;99620.09;;;26.94;44.24
22743;BME280;11538;48.884;8.696;2023-06-24T09:06:07;99623.75;;;27.12;44.74
22743;BME280;11538;48.884;8.696;2023-06-24T09:08:33;99617.44;;;27.26;44.99
22743;BME280;11538;48.884;8.696;2023-06-24T09:11:02;99618.66;;;27.29;41.15
22743;BME280;11538;48.884;8.696;2023-06-24T09:13:36;99609.09;;;27.26;43.06
22743;BME280;11538;48.884;8.696;2023-06-24T09:16:14;99612.31;;;27.32;42.97
22743;BME280;11538;48.884;8.696;2023-06-24T09:18:48;99609.19;;;27.55;45.48
22743;BME280;11538;48.884;8.696;2023-06-24T09:21:26;99604.00;;;27.65;43.36
22743;BME280;11538;48.884;8.696;2023-06-24T09:23:54;99608.00;;;27.60;40.80
22743;BME280;11538;48.884;8.696;2023-06-24T09:26:26;99602.03;;;27.72;43.81
22743;BME280;11538;48.884;8.696;2023-06-24T09:28:54;99598.47;;;27.83;39.08
22743;BME280;11538;48.884;8.696;2023-06-24T09:31:23;99602.44;;;27.82;39.56
22743;BME280;11538;48.884;8.696;2023-06-24T09:33:51;99598.06;;;27.77;41.05
22743;BME280;11538;48.884;8.696;2023-06-24T09:36:18;99591.69;;;28.09;43.36
22743;BME280;11538;48.884;8.696;2023-06-24T09:38:45;99588.91;;;28.16;40.17
22743;BME280;11538;48.884;8.696;2023-06-24T09:41:14;99593.25;;;28.36;43.05
22743;BME280;11538;48.884;8.696;2023-06-24T09:43:43;99591.25;;;28.54;41.92
22743;BME280;11538;48.884;8.696;2023-06-24T09:46:14;99588.44;;;28.62;40.26
22743;BME280;11538;48.884;8.696;2023-06-24T09:48:42;99582.78;;;28.76;40.11
22743;BME280;11538;48.884;8.696;2023-06-24T09:51:16;99576.38;;;28.90;36.78
22743;BME280;11538;48.884;8.696;2023-06-24T09:53:44;99586.03;;;28.64;41.48
22743;BME280;11538;48.884;8.696;2023-06-24T09:56:15;99566.91;;;28.58;44.04
22743;BME280;11538;48.884;8.696;2023-06-24T09:58:44;99572.78;;;28.86;40.75
22743;BME280;11538;48.884;8.696;2023-06-24T10:01:12;99570.66;;;29.12;39.94
22743;BME280;11538;48.884;8.696;2023-06-24T10:03:39;99569.75;;;29.37;40.52
22743;BME280;11538;48.884;8.696;2023-06-24T10:06:07;99572.91;;;29.46;39.40
22743;BME280;11538;48.884;8.696;2023-06-24T10:08:34;99565.22;;;29.57;39.54
22743;BME280;11538;48.884;8.696;2023-06-24T10:11:02;99564.72;;;29.70;39.84
22743;BME280;11538;48.884;8.696;2023-06-24T10:13:29;99559.78;;;29.88;43.13
22743;BME280;11538;48.884;8.696;2023-06-24T10:15:57;99563.47;;;29.78;39.24
22743;BME280;11538;48.884;8.696;2023-06-24T10:18:39;99560.03;;;29.59;33.83
22743;BME280;11538;48.884;8.696;2023-06-24T10:21:08;99560.81;;;29.60;38.16
22743;BME280;11538;48.884;8.696;2023-06-24T10:23:51;99553.53;;;29.70;36.87
22743;BME280;11538;48.884;8.696;2023-06-24T10:26:29;99556.22;;;29.84;34.20
22743;BME280;11538;48.884;8.696;2023-06-24T10:37:03;99530.31;;;30.22;32.33
22743;BME280;11538;48.884;8.696;2023-06-24T10:39:58;99532.19;;;30.32;33.31
22743;BME280;11538;48.884;8.696;2023-06-24T10:42:35;99532.75;;;30.55;36.20
22743;BME280;11538;48.884;8.696;2023-06-24T10:47:38;99515.34;;;30.71;30.67
22743;BME280;11538;48.884;8.696;2023-06-24T10:50:08;99522.44;;;30.79;34.17
22743;BME280;11538;48.884;8.696;2023-06-24T10:52:47;99518.09;;;31.05;36.35
22743;BME280;11538;48.884;8.696;2023-06-24T10:55:18;99514.44;;;31.08;34.59
22743;BME280;11538;48.884;8.696;2023-06-24T10:57:46;99506.28;;;31.21;35.09
22743;BME280;11538;48.884;8.696;2023-06-24T11:00:15;99504.91;;;31.57;37.33
22743;BME280;11538;48.884;8.696;2023-06-24T11:02:42;99504.66;;;31.72;31.81
22743;BME280;11538;48.884;8.696;2023-06-24T11:05:09;99496.00;;;31.62;34.81
22743;BME280;11538;48.884;8.696;2023-06-24T11:07:39;99506.22;;;31.73;30.58
22743;BME280;11538;48.884;8.696;2023-06-24T11:10:13;99509.38;;;31.78;32.20
22743;BME280;11538;48.884;8.696;2023-06-24T11:12:42;99511.19;;;31.89;30.78
22743;BME280;11538;48.884;8.696;2023-06-24T11:15:12;99508.25;;;31.96;33.85
22743;BME280;11538;48.884;8.696;2023-06-24T11:17:40;99506.25;;;31.97;28.29
22743;BME280;11538;48.884;8.696;2023-06-24T11:20:10;99498.63;;;31.49;27.82
22743;BME280;11538;48.884;8.696;2023-06-24T11:22:40;99495.22;;;31.62;29.10
22743;BME280;11538;48.884;8.696;2023-06-24T11:25:20;99488.56;;;31.76;29.70
22743;BME280;11538;48.884;8.696;2023-06-24T11:27:50;99483.59;;;32.07;29.78
22743;BME280;11538;48.884;8.696;2023-06-24T11:30:19;99489.22;;;32.28;28.00
22743;BME280;11538;48.884;8.696;2023-06-24T11:32:46;99487.41;;;32.58;27.40
22743;BME280;11538;48.884;8.696;2023-06-24T11:35:15;99480.16;;;32.97;27.84
22743;BME280;11538;48.884;8.696;2023-06-24T11:37:47;99479.50;;;33.59;27.68
22743;BME280;11538;48.884;8.696;2023-06-24T11:40:18;99479.78;;;33.94;26.61
22743;BME280;11538;48.884;8.696;2023-06-24T11:42:46;99475.47;;;34.19;25.26
22743;BME280;11538;48.884;8.696;2023-06-24T11:45:20;99473.94;;;34.31;24.37
22743;BME280;11538;48.884;8.696;2023-06-24T11:47:47;99465.94;;;34.30;24.28
22743;BME280;11538;48.884;8.696;2023-06-24T11:50:15;99471.69;;;34.26;24.76
22743;BME280;11538;48.884;8.696;2023-06-24T11:52:48;99461.31;;;34.36;25.33
22743;BME280;11538;48.884;8.696;2023-06-24T11:55:39;99444.31;;;34.26;24.84
22743;BME280;11538;48.884;8.696;2023-06-24T11:58:19;99449.97;;;34.39;24.81
22743;BME280;11538;48.884;8.696;2023-06-24T12:00:48;99444.06;;;34.76;24.12
22743;BME280;11538;48.884;8.696;2023-06-24T12:03:16;99443.28;;;34.89;21.25
22743;BME280;11538;48.884;8.696;2023-06-24T12:05:47;99443.28;;;34.89;21.84
22743;BME280;11538;48.884;8.696;2023-06-24T12:08:14;99448.81;;;35.18;23.50
22743;BME280;11538;48.884;8.696;2023-06-24T12:10:44;99443.19;;;35.40;23.20
22743;BME280;11538;48.884;8.696;2023-06-24T12:13:11;99438.13;;;35.48;23.48
22743;BME280;11538;48.884;8.696;2023-06-24T12:15:39;99427.53;;;35.52;20.97
22743;BME280;11538;48.884;8.696;2023-06-24T12:18:06;99429.31;;;35.46;22.16
22743;BME280;11538;48.884;8.696;2023-06-24T12:20:34;99431.00;;;35.43;21.90
22743;BME280;11538;48.884;8.696;2023-06-24T12:23:05;99417.97;;;35.72;22.44
22743;BME280;11538;48.884;8.696;2023-06-24T12:25:32;99417.75;;;35.66;23.14
22743;BME280;11538;48.884;8.696;2023-06-24T12:28:00;99426.28;;;35.40;22.33
22743;BME280;11538;48.884;8.696;2023-06-24T12:30:28;99421.88;;;35.52;22.34
22743;BME280;11538;48.884;8.696;2023-06-24T12:32:55;99422.00;;;35.84;21.79
22743;BME280;11538;48.884;8.696;2023-06-24T12:35:23;99414.28;;;35.84;21.27
22743;BME280;11538;48.884;8.696;2023-06-24T12:37:53;99408.19;;;35.86;21.21
22743;BME280;11538;48.884;8.696;2023-06-24T12:40:20;99402.94;;;35.97;21.40
22743;BME280;11538;48.884;8.696;2023-06-24T12:42:47;99397.34;;;35.84;20.70
22743;BME280;11538;48.884;8.696;2023-06-24T12:45:14;99398.00;;;35.66;21.73
22743;BME280;11538;48.884;8.696;2023-06-24T12:47:41;99393.75;;;36.06;22.09
22743;BME280;11538;48.884;8.696;2023-06-24T12:50:09;99394.84;;;35.99;21.73
22743;BME280;11538;48.884;8.696;2023-06-24T12:52:37;99393.75;;;36.06;21.87
22743;BME280;11538;48.884;8.696;2023-06-24T12:55:06;99396.81;;;35.77;21.67
22743;BME280;11538;48.884;8.696;2023-06-24T12:57:35;99397.19;;;35.79;21.83
22743;BME280;11538;48.884;8.696;2023-06-24T13:00:04;99383.50;;;35.55;20.94
22743;BME280;11538;48.884;8.696;2023-06-24T13:02:35;99384.88;;;35.50;21.41
22743;BME280;11538;48.884;8.696;2023-06-24T13:05:03;99375.63;;;35.50;21.42
22743;BME280;11538;48.884;8.696;2023-06-24T13:07:31;99378.50;;;35.59;21.55
22743;BME280;11538;48.884;8.696;2023-06-24T13:09:58;99381.06;;;35.89;21.22
22743;BME280;11538;48.884;8.696;2023-06-24T13:12:26;99372.06;;;36.25;21.82
22743;BME280;11538;48.884;8.696;2023-06-24T13:14:53;99385.75;;;36.36;21.74
22743;BME280;11538;48.884;8.696;2023-06-24T13:17:20;99378.78;;;36.50;21.46
22743;BME280;11538;48.884;8.696;2023-06-24T13:19:46;99370.44;;;36.47;21.45
22743;BME280;11538;48.884;8.696;2023-06-24T13:22:13;99373.47;;;36.52;21.43
22743;BME280;11538;48.884;8.696;2023-06-24T13:24:40;99378.56;;;36.76;21.01
22743;BME280;11538;48.884;8.696;2023-06-24T13:27:07;99378.41;;;36.80;19.92
22743;BME280;11538;48.884;8.696;2023-06-24T13:29:34;99375.28;;;36.78;19.97
22743;BME280;11538;48.884;8.696;2023-06-24T13:32:04;99364.53;;;36.54;20.22
22743;BME280;11538;48.884;8.696;2023-06-24T13:34:31;99364.41;;;36.35;20.35